M I D A S
Marine Information and Data Acquisition System
Tripno 1102 of the Zeeleeuw from 2006-05-10 06:48:14 to 2006-05-10 14:04:03
Back to CruiseResearch ActivitiesStationsMapUnderway DataData graphs

EquipmentUnitsComment
TimeDGPSUTC
LatitudeDGPSDM.mWGS84
LongitudeDGPSDM.mWGS84
TemperatureSBE03/SBE38deg celciusITS90
ConductivitySBE21S/mITS90
SalinitySBE21 Practical Salinity Units
ChlorophylAChelsea fluorimeterg/lCalibrated in Aceton
Missing or incorrect values are displayed as -999
Sea surface data collected by the RV Zeeleeuw from 2006-05-10 06:44:12 to 2006-05-10 14:21:31
Time Latitude Longitude Temperature Conductivity Salinity ChlorophylA
2006-05-10 06:45:17 51°13.614 2°56.031 19.7088 0.005812 0.035261 43.512905
2006-05-10 06:46:17 51°13.642 2°55.922 19.7304 0.005812 0.03526 43.546614
2006-05-10 06:47:17 51°13.688 2°55.81 19.7089 0.005812 0.035259 43.512905
2006-05-10 06:48:17 51°13.714 2°55.724 19.7639 0.005812 0.035258 43.512905
2006-05-10 06:49:17 51°13.726 2°55.738 19.6535 0.005812 0.035257 43.512905
2006-05-10 06:50:17 51°13.712 2°55.722 19.754 0.005812 0.035256 43.512905
2006-05-10 06:51:17 51°13.75 2°55.704 19.7542 0.005812 0.035254 43.512905
2006-05-10 06:52:17 51°13.852 2°55.624 19.6426 0.005812 0.035253 43.479195
2006-05-10 06:53:17 51°13.984 2°55.524 19.6536 0.005812 0.035252 43.479195
2006-05-10 06:54:17 51°14.123 2°55.418 19.7072 0.005812 0.035251 43.479195
2006-05-10 06:55:17 51°14.25 2°55.279 19.8029 0.005812 0.03525 43.445486
2006-05-10 06:56:17 51°14.352 2°55.091 19.7159 0.005812 0.035249 43.411777
2006-05-10 06:57:17 51°14.447 2°54.865 19.6194 0.005812 0.035249 43.411777
2006-05-10 06:58:17 51°14.523 2°54.559 19.5222 0.005812 0.035247 43.344358
2006-05-10 06:59:17 51°14.635 2°54.27 19.5652 0.005812 0.035246 43.344358
2006-05-10 07:00:17 51°14.755 2°53.991 19.4937 0.005812 0.035245 43.310648
2006-05-10 07:01:16 51°14.904 2°53.769 19.5043 0.005812 0.035245 43.344358
2006-05-10 07:02:17 51°15.057 2°53.535 19.5002 0.005812 0.035244 43.310648
2006-05-10 07:03:17 51°15.214 2°53.316 19.4815 0.005812 0.035245 43.344358
2006-05-10 07:04:17 51°15.371 2°53.097 19.497 0.005812 0.035244 43.310648
2006-05-10 07:05:16 51°15.518 2°52.862 19.4976 0.005812 0.035244 43.344358
2006-05-10 07:06:16 51°15.6 2°52.546 19.4468 0.005708 0.034722 43.310648
2006-05-10 07:07:17 51°15.632 2°52.189 19.4623 0.005812 0.035239 43.24323
2006-05-10 07:08:17 51°15.671 2°51.837 19.4725 0.005812 0.035239 43.310648
2006-05-10 07:09:16 51°15.707 2°51.492 12.585 0.005812 0.035258 43.310648
2006-05-10 07:10:16 51°15.745 2°51.142 11.9684 3.695262 31.438087 28.815606
2006-05-10 07:11:17 51°15.782 2°50.789 11.8491 3.710544 31.98523 25.2087
2006-05-10 07:12:17 51°15.818 2°50.451 11.7243 3.719606 32.206437 23.556939
2006-05-10 07:13:17 51°15.852 2°50.115 11.6997 3.724665 32.344137 24.129999
2006-05-10 07:14:16 51°15.885 2°49.785 11.6432 3.72161 32.37165 24.871606
2006-05-10 07:15:16 51°15.919 2°49.443 11.6117 3.728459 32.480081 24.837896
2006-05-10 07:16:17 51°15.954 2°49.092 11.5955 3.733517 32.56171 24.905315
2006-05-10 07:17:16 51°15.988 2°48.751 11.5776 3.727195 32.517003 25.040153
2006-05-10 07:18:16 51°16.023 2°48.401 11.5683 3.728671 32.554246 25.377247
2006-05-10 07:19:17 51°16.028 2°48.042 11.5674 3.753852 32.818661 25.714341
2006-05-10 07:20:17 51°16.068 2°47.7 11.5255 3.752166 32.789642 25.984016
2006-05-10 07:21:17 51°16.121 2°47.359 11.5136 3.713289 32.45266 26.253691
2006-05-10 07:22:17 51°16.172 2°47.02 11.4863 3.716134 32.499091 26.388529
2006-05-10 07:23:17 51°16.222 2°46.683 11.4789 3.77029 33.044372 26.658204
2006-05-10 07:24:17 51°16.27 2°46.347 11.4907 3.775031 33.094901 26.89417
2006-05-10 07:25:16 51°16.319 2°46.02 11.5086 3.783355 33.174041 27.130136
2006-05-10 07:26:17 51°16.381 2°45.686 11.5276 3.793996 33.255897 27.130136
2006-05-10 07:27:17 51°16.464 2°45.372 11.526 3.80369 33.339849 27.096426
2006-05-10 07:28:17 51°16.573 2°45.082 11.4878 3.801056 33.32911 27.231264
2006-05-10 07:29:17 51°16.683 2°44.794 11.4707 3.795051 33.298979 27.399811
2006-05-10 07:30:17 51°16.794 2°44.501 11.3512 3.787465 33.252645 27.703195
2006-05-10 07:31:17 51°16.902 2°44.202 11.2816 3.777983 33.272022 27.534648
2006-05-10 07:32:16 51°17.01 2°43.906 11.2437 3.774718 33.290176 27.163845
2006-05-10 07:33:16 51°17.131 2°43.622 11.245 3.77398 33.302329 26.927879
2006-05-10 07:34:17 51°17.273 2°43.361 11.2518 3.774823 33.31205 26.759332
2006-05-10 07:35:16 51°17.411 2°43.112 11.2398 3.776509 33.330777 26.624494
2006-05-10 07:36:16 51°17.553 2°42.863 11.2347 3.773559 33.308972 26.489657
2006-05-10 07:37:17 51°17.7 2°42.602 11.2284 3.766289 33.245414 26.388529
2006-05-10 07:38:17 51°17.844 2°42.344 11.2455 3.773032 33.308109 26.2874
2006-05-10 07:39:16 51°17.98 2°42.08 11.2935 3.788204 33.432771 26.118853
2006-05-10 07:40:17 51°18.111 2°41.792 11.3111 3.795264 33.471842 25.984016
2006-05-10 07:41:17 51°18.24 2°41.508 11.2936 3.798951 33.498686 25.882888
2006-05-10 07:42:17 51°18.366 2°41.227 11.2516 3.800321 33.536718 25.815469
2006-05-10 07:43:17 51°18.495 2°40.946 11.2434 3.800322 33.570754 25.74805
2006-05-10 07:44:17 51°18.624 2°40.67 11.2615 3.79832 33.547431 25.613212
2006-05-10 07:45:16 51°18.751 2°40.398 11.2798 3.825716 33.79962 25.545794
2006-05-10 07:46:17 51°18.883 2°40.12 11.3005 3.842891 33.952659 25.444665
2006-05-10 07:47:16 51°18.987 2°39.828 11.3207 3.852901 34.041714 25.377247
2006-05-10 07:48:17 51°19.089 2°39.516 11.3445 3.858275 34.071137 25.309828
2006-05-10 07:49:17 51°19.187 2°39.208 11.3495 3.862806 34.091504 25.242409
2006-05-10 07:50:17 51°19.284 2°38.9 11.2652 3.862174 34.089688 25.141281
2006-05-10 07:51:16 51°19.38 2°38.592 11.2427 3.853218 34.083054 25.040153
2006-05-10 07:52:17 51°19.47 2°38.267 11.2501 3.852059 34.081929 24.905315
2006-05-10 07:53:16 51°19.552 2°37.951 11.2265 3.857854 34.128777 24.770477
2006-05-10 07:54:17 51°19.632 2°37.625 11.1973 3.862807 34.209397 24.669349
2006-05-10 07:55:17 51°19.714 2°37.306 11.1593 3.864283 34.252104 24.534512
2006-05-10 07:56:17 51°19.796 2°36.99 11.1471 3.864705 34.28372 24.433383
2006-05-10 07:57:17 51°19.878 2°36.674 11.119 3.865127 34.305722 24.332255
2006-05-10 07:58:16 51°19.96 2°36.363 11.1037 3.866602 34.338928 24.197418
2006-05-10 07:59:16 51°20.043 2°36.047 11.0866 3.866602 34.355319 24.129999
2006-05-10 08:00:16 51°20.126 2°35.73 11.0797 3.866076 34.364265 23.995161
2006-05-10 08:01:16 51°20.21 2°35.415 11.0739 3.866603 34.372472 23.826614
2006-05-10 08:02:17 51°20.297 2°35.091 11.07 3.866392 34.377846 23.658067
2006-05-10 08:03:17 51°20.389 2°34.775 11.0701 3.866603 34.384416 23.52323
2006-05-10 08:04:17 51°20.508 2°34.482 11.0829 3.866498 34.387852 23.388392
2006-05-10 08:05:16 51°20.638 2°34.212 11.0693 3.866919 34.374859 23.186136
2006-05-10 08:06:16 51°20.786 2°33.957 11.1109 3.864917 34.37591 23.051298
2006-05-10 08:07:16 51°20.937 2°33.704 11.1736 3.863862 34.296182 22.95017
2006-05-10 08:08:17 51°21.09 2°33.443 11.1487 3.867761 34.299091 22.882751
2006-05-10 08:09:16 51°21.237 2°33.197 11.075 3.867761 34.322125 22.781623
2006-05-10 08:10:17 51°21.385 2°32.95 10.851 3.873559 34.516368 22.747913
2006-05-10 08:11:16 51°21.527 2°32.714 10.7895 3.868608 34.617125 22.680494
2006-05-10 08:12:17 51°21.675 2°32.474 10.7899 3.865026 34.620751 22.478238
2006-05-10 08:13:17 51°21.824 2°32.24 10.8278 3.86492 34.621973 22.309691
2006-05-10 08:14:16 51°22.008 2°32.092 10.8156 3.866817 34.615148 22.141144
2006-05-10 08:15:16 51°22.198 2°31.942 10.8637 3.865447 34.598444 22.006306
2006-05-10 08:16:16 51°22.387 2°31.791 10.858 3.866184 34.572525 21.871469
2006-05-10 08:17:17 51°22.581 2°31.635 10.8455 3.862602 34.610185 21.871469
2006-05-10 08:18:16 51°22.77 2°31.488 10.8642 3.864287 34.556632 21.736631
2006-05-10 08:19:16 51°22.961 2°31.336 10.8217 3.865446 34.56517 21.669212
2006-05-10 08:20:17 51°23.156 2°31.184 10.8325 3.863023 34.596206 21.601794
2006-05-10 08:21:16 51°23.342 2°31.038 10.7018 3.865342 34.611024 21.534375
2006-05-10 08:22:16 51°23.533 2°30.89 10.6079 3.859758 34.678262 21.568084
2006-05-10 08:23:16 51°23.725 2°30.745 10.5391 3.855228 34.729054 21.500665
2006-05-10 08:24:16 51°23.917 2°30.602 10.5321 3.853648 34.746884 21.365828
2006-05-10 08:25:17 51°24.113 2°30.457 10.5012 3.851963 34.756782 21.298409
2006-05-10 08:26:17 51°24.305 2°30.317 10.504 3.85133 34.755026 21.2647
2006-05-10 08:27:16 51°24.493 2°30.176 10.5074 3.849223 34.756856 21.197281
2006-05-10 08:28:16 51°24.683 2°30.028 10.5673 3.849328 34.730276 21.129862
2006-05-10 08:29:16 51°24.874 2°29.883 10.5347 3.852383 34.7043 21.062443
2006-05-10 08:30:17 51°25.065 2°29.731 10.514 3.84975 34.738353 21.096153
2006-05-10 08:31:17 51°25.255 2°29.584 10.5266 3.848275 34.722743 21.062443
2006-05-10 08:32:17 51°25.445 2°29.439 10.4786 3.84838 34.733778 21.028734
2006-05-10 08:33:16 51°25.632 2°29.305 10.471 3.846378 34.725907 20.995024
2006-05-10 08:34:16 51°25.826 2°29.18 10.3636 3.84543 34.753241 20.961315
2006-05-10 08:35:16 51°26.018 2°29.059 10.2937 3.843324 34.82838 20.927606
2006-05-10 08:36:17 51°26.215 2°28.929 10.2747 3.839321 34.845177 20.893896
2006-05-10 08:37:16 51°26.409 2°28.798 10.306 3.838267 34.834514 20.860187
2006-05-10 08:38:17 51°26.61 2°28.658 10.3439 3.839426 34.826103 20.792768
2006-05-10 08:39:16 51°26.806 2°28.521 10.3737 3.841322 34.809696 20.69164
2006-05-10 08:40:17 51°27.005 2°28.377 10.3394 3.843745 34.812544 20.69164
2006-05-10 08:41:17 51°27.203 2°28.235 10.3865 3.841427 34.799943 20.65793
2006-05-10 08:42:16 51°27.395 2°28.095 10.3771 3.843851 34.805885 20.65793
2006-05-10 08:43:16 51°27.589 2°27.952 10.3862 3.843429 34.794683 20.65793
2006-05-10 08:44:16 51°27.786 2°27.844 10.2683 3.843324 34.832247 20.65793
2006-05-10 08:45:17 51°27.971 2°27.683 10.1902 3.8389 34.882815 20.725349
2006-05-10 08:46:16 51°28.121 2°27.465 10.1631 3.834685 34.888295 20.725349
2006-05-10 08:47:16 51°28.243 2°27.195 10.1768 3.832894 34.889582 20.69164
2006-05-10 08:48:16 51°28.396 2°26.975 10.1553 3.832894 34.893476 20.65793
2006-05-10 08:49:16 51°28.587 2°26.855 10.1486 3.831419 34.899539 20.65793
2006-05-10 08:50:17 51°28.703 2°26.846 10.1703 3.831419 34.899539 20.590512
2006-05-10 08:51:17 51°28.767 2°26.924 10.2075 3.83458 34.89034 20.523093
2006-05-10 08:52:16 51°28.8 2°26.996 10.1984 3.83753 34.904702 20.489383
2006-05-10 08:53:16 51°28.818 2°27.051 10.1555 3.836688 34.919514 20.489383
2006-05-10 08:54:16 51°28.833 2°27.093 10.1974 3.834897 34.922377 20.455674
2006-05-10 08:55:16 51°28.852 2°27.122 10.2586 3.839638 34.90973 20.455674
2006-05-10 08:56:17 51°28.872 2°27.137 10.2613 3.842904 34.908618 20.455674
2006-05-10 08:57:17 51°28.889 2°27.143 10.2252 3.842904 34.911727 20.421965
2006-05-10 08:58:17 51°28.899 2°27.142 10.1769 3.839532 34.921894 20.455674
2006-05-10 08:59:17 51°28.904 2°27.139 10.1595 3.836161 34.92196 20.489383
2006-05-10 09:00:17 51°28.897 2°27.111 10.1198 3.834581 34.926187 20.489383
2006-05-10 09:01:17 51°28.851 2°27.058 10.1228 3.83142 34.929974 20.489383
2006-05-10 09:02:17 51°28.819 2°27.028 10.1075 3.830998 34.929595 20.455674
2006-05-10 09:03:17 51°28.813 2°27.037 10.0942 3.830682 34.930287 20.455674
2006-05-10 09:04:16 51°28.808 2°27.047 10.0841 3.829734 34.933147 20.455674
2006-05-10 09:05:16 51°28.802 2°27.057 10.0705 3.828681 34.934156 20.455674
2006-05-10 09:06:17 51°28.797 2°27.066 10.0819 3.827838 34.9334 20.455674
2006-05-10 09:07:17 51°28.792 2°27.077 10.0979 3.828575 34.929957 20.421965
2006-05-10 09:08:16 51°28.788 2°27.088 10.1234 3.830472 34.932051 20.354546
2006-05-10 09:09:17 51°28.786 2°27.098 10.1425 3.832789 34.92906 20.354546
2006-05-10 09:10:17 51°28.784 2°27.108 10.1747 3.83437 34.928727 20.354546
2006-05-10 09:11:17 51°28.783 2°27.116 10.2 3.836898 34.923211 20.287127
2006-05-10 09:12:17 51°28.781 2°27.125 10.2403 3.8389 34.917817 20.253418
2006-05-10 09:13:17 51°28.779 2°27.134 10.265 3.841745 34.9132 20.253418
2006-05-10 09:14:17 51°28.778 2°27.142 10.2734 3.843009 34.906577 20.219708
2006-05-10 09:15:17 51°28.778 2°27.151 10.2715 3.843852 34.906568 20.253418
2006-05-10 09:16:16 51°28.78 2°27.112 10.2867 3.843536 34.90492 20.253418
2006-05-10 09:17:17 51°28.721 2°27.025 10.2687 3.844168 34.904331 20.253418
2006-05-10 09:18:16 51°28.67 2°27.017 10.2793 3.844695 34.909666 20.219708
2006-05-10 09:19:17 51°28.632 2°27.027 10.3373 3.846064 34.903345 20.185999
2006-05-10 09:20:16 51°28.562 2°27.098 10.3383 3.848909 34.902648 20.152289
2006-05-10 09:21:17 51°28.412 2°27.18 10.2056 3.847434 34.901687 20.185999
2006-05-10 09:22:17 51°28.213 2°27.242 10.1771 3.835845 34.904727 20.253418
2006-05-10 09:23:16 51°28.009 2°27.312 10.1497 3.833211 34.899802 20.253418
2006-05-10 09:24:17 51°27.801 2°27.391 10.1321 3.832684 34.901467 20.253418
2006-05-10 09:25:17 51°27.595 2°27.473 10.1428 3.831736 34.912109 20.219708
2006-05-10 09:26:17 51°27.39 2°27.548 10.2823 3.833632 34.907199 20.219708
2006-05-10 09:27:17 51°27.188 2°27.627 10.382 3.84206 34.830297 20.11858
2006-05-10 09:28:17 51°26.986 2°27.697 10.3261 3.845642 34.821656 20.11858
2006-05-10 09:29:17 51°26.783 2°27.771 10.2994 3.841849 34.841324 20.185999
2006-05-10 09:30:17 51°26.581 2°27.849 10.2733 3.840269 34.851674 20.152289
2006-05-10 09:31:17 51°26.38 2°27.933 10.3062 3.83911 34.853123 20.185999
2006-05-10 09:32:17 51°26.18 2°28.012 10.3157 3.842798 34.85014 20.11858
2006-05-10 09:33:17 51°25.979 2°28.095 10.2626 3.844167 34.850828 20.11858
2006-05-10 09:34:17 51°25.779 2°28.18 10.3212 3.840374 34.864373 20.152289
2006-05-10 09:35:17 51°25.58 2°28.249 10.3384 3.844062 34.848214 20.11858
2006-05-10 09:36:17 51°25.379 2°28.329 10.3138 3.84343 34.844919 20.152289
2006-05-10 09:37:17 51°25.176 2°28.412 10.2402 3.840901 34.850321 20.152289
2006-05-10 09:38:16 51°24.97 2°28.487 10.2443 3.836265 34.85923 20.185999
2006-05-10 09:39:17 51°24.759 2°28.556 10.2717 3.835739 34.856998 20.152289
2006-05-10 09:40:17 51°24.555 2°28.619 10.3589 3.838899 34.854092 20.152289
2006-05-10 09:41:17 51°24.355 2°28.637 10.4448 3.847328 34.820144 20.084871
2006-05-10 09:42:17 51°24.15 2°28.639 10.5247 3.847854 34.776127 20.11858
2006-05-10 09:43:17 51°23.945 2°28.63 10.5143 3.8527 34.7619 20.11858
2006-05-10 09:44:17 51°23.739 2°28.622 10.5249 3.853122 34.779201 20.185999
2006-05-10 09:45:16 51°23.537 2°28.636 10.4984 3.856388 34.787486 20.11858
2006-05-10 09:46:16 51°23.331 2°28.656 10.5785 3.856388 34.812854 20.185999
2006-05-10 09:47:16 51°23.131 2°28.675 10.8576 3.85997 34.755241 20.185999
2006-05-10 09:48:16 51°22.932 2°28.689 10.7232 3.873034 34.686332 20.152289
2006-05-10 09:49:16 51°22.737 2°28.755 10.9439 3.866502 34.710752 20.253418
2006-05-10 09:50:17 51°22.539 2°28.854 10.9981 3.881252 34.628249 20.185999
2006-05-10 09:51:17 51°22.349 2°28.967 10.8379 3.881989 34.659002 20.320836
2006-05-10 09:52:17 51°22.161 2°29.101 10.8279 3.876195 34.692092 20.354546
2006-05-10 09:53:17 51°21.974 2°29.229 10.74 3.876301 34.708326 20.388255
2006-05-10 09:54:16 51°21.788 2°29.36 10.6235 3.871876 34.748545 20.489383
2006-05-10 09:55:17 51°21.595 2°29.491 10.589 3.862183 34.812746 20.556802
2006-05-10 09:56:16 51°21.402 2°29.536 10.5392 3.863553 34.797353 20.523093
2006-05-10 09:57:16 51°21.203 2°29.586 10.651 3.859865 34.810174 20.523093
2006-05-10 09:58:17 51°20.999 2°29.656 10.6346 3.867556 34.777042 20.455674
2006-05-10 09:59:16 51°20.803 2°29.733 10.5532 3.868716 34.813169 20.455674
2006-05-10 10:00:17 51°20.604 2°29.8 10.6977 3.867978 34.827231 20.455674
2006-05-10 10:01:16 51°20.412 2°29.85 10.6273 3.870718 34.816406 20.421965
2006-05-10 10:02:16 51°20.232 2°29.901 10.5974 3.867241 34.834403 20.421965
2006-05-10 10:03:17 51°20.148 2°29.939 10.5965 3.868927 34.843663 20.354546
2006-05-10 10:04:16 51°20.115 2°29.951 10.577 3.868295 34.85267 20.388255
2006-05-10 10:05:16 51°20.108 2°29.969 10.5328 3.865766 34.857992 20.388255
2006-05-10 10:06:16 51°20.096 2°29.986 10.4837 3.863554 34.857273 20.354546
2006-05-10 10:07:16 51°20.079 2°30.018 10.4965 3.859445 34.858257 20.354546
2006-05-10 10:08:17 51°20.062 2°30.073 10.4818 3.861341 34.860408 20.354546
2006-05-10 10:09:17 51°20.048 2°30.141 10.4747 3.858602 34.864412 20.354546
2006-05-10 10:10:16 51°20.042 2°30.215 10.5074 3.858812 34.858825 20.354546
2006-05-10 10:11:17 51°20.043 2°30.29 10.4454 3.860077 34.858461 20.253418
2006-05-10 10:12:16 51°20.047 2°30.352 10.4178 3.855652 34.86476 20.320836
2006-05-10 10:13:17 51°20.051 2°30.372 10.3816 3.853123 34.86705 20.287127
2006-05-10 10:14:16 51°20.058 2°30.394 10.3802 3.850594 34.867029 20.354546
2006-05-10 10:15:13 51°20.064 2°30.42 10.3622 3.850384 34.865674 20.287127
2006-05-10 10:16:16 51°20.07 2°30.453 10.3749 3.848276 34.869142 20.287127
2006-05-10 10:17:17 51°20.075 2°30.489 10.3975 3.849857 34.865767 20.287127
2006-05-10 10:18:16 51°20.079 2°30.528 10.434 3.852385 34.860379 20.219708
2006-05-10 10:19:17 51°20.082 2°30.575 10.4182 3.854703 34.864459 20.219708
2006-05-10 10:20:16 51°20.083 2°30.621 10.4044 3.852491 34.86917 20.219708
2006-05-10 10:21:16 51°20.083 2°30.671 10.4093 3.852912 34.864923 20.219708
2006-05-10 10:22:16 51°20.085 2°30.72 10.4254 3.853018 34.864441 20.219708
2006-05-10 10:23:16 51°20.086 2°30.771 10.4156 3.853228 34.863478 20.219708
2006-05-10 10:24:16 51°20.088 2°30.821 10.4053 3.853439 34.864059 20.219708
2006-05-10 10:25:16 51°20.091 2°30.871 10.3826 3.851332 34.868291 20.253418
2006-05-10 10:26:16 51°20.094 2°30.921 10.377 3.850278 34.868477 20.253418
2006-05-10 10:27:17 51°20.097 2°30.97 10.3649 3.849435 34.866924 20.219708
2006-05-10 10:28:17 51°20.1 2°31.03 10.3657 3.849014 34.865761 20.219708
2006-05-10 10:29:17 51°20.075 2°31.171 10.3781 3.848487 34.866628 20.253418
2006-05-10 10:30:17 51°19.966 2°31.288 10.3691 3.848487 34.867402 20.185999
2006-05-10 10:31:16 51°19.83 2°31.465 10.3932 3.848276 34.86063 20.185999
2006-05-10 10:32:17 51°19.671 2°31.707 10.4746 3.850173 34.848088 20.185999
2006-05-10 10:33:17 51°19.522 2°31.949 10.8767 3.858389 34.697329 20.051161
2006-05-10 10:34:17 51°19.37 2°32.189 10.9042 3.873665 34.615372 20.051161
2006-05-10 10:35:17 51°19.219 2°32.441 10.8925 3.874298 34.652696 20.185999
2006-05-10 10:36:17 51°19.067 2°32.684 11.1974 3.880093 34.642381 20.185999
2006-05-10 10:37:16 51°18.921 2°32.926 11.2126 3.895685 34.546956 20.11858
2006-05-10 10:38:17 51°18.77 2°33.176 11.216 3.894527 34.582622 20.253418
2006-05-10 10:39:17 51°18.621 2°33.421 11.1349 3.897266 34.534206 20.287127
2006-05-10 10:40:17 51°18.47 2°33.667 10.992 3.890418 34.597391 20.489383
2006-05-10 10:41:16 51°18.319 2°33.911 11.0397 3.88357 34.633962 20.624221
2006-05-10 10:42:17 51°18.162 2°34.162 10.8884 3.887679 34.640144 20.590512
2006-05-10 10:43:16 51°18.011 2°34.411 10.9599 3.881463 34.685525 20.725349
2006-05-10 10:44:16 51°17.859 2°34.668 10.8844 3.889682 34.715935 20.65793
2006-05-10 10:45:16 51°17.706 2°34.926 10.7407 3.883255 34.770185 20.826477
2006-05-10 10:46:16 51°17.548 2°35.182 10.6839 3.872298 34.773366 20.860187
2006-05-10 10:47:16 51°17.387 2°35.434 10.6736 3.870612 34.778626 20.792768
2006-05-10 10:48:16 51°17.228 2°35.688 10.6725 3.87019 34.783574 20.725349
2006-05-10 10:49:16 51°17.076 2°35.952 10.6636 3.869769 34.791584 20.69164
2006-05-10 10:50:16 51°16.928 2°36.219 10.644 3.870401 34.799454 20.590512
2006-05-10 10:51:16 51°16.789 2°36.491 11.019 3.869664 34.801241 20.556802
2006-05-10 10:52:16 51°16.678 2°36.718 11.5108 3.89811 34.622613 20.354546
2006-05-10 10:53:16 51°16.632 2°36.823 11.5242 3.929192 34.577375 20.354546
2006-05-10 10:54:16 51°16.637 2°36.881 11.5407 3.929614 34.599303 20.455674
2006-05-10 10:55:16 51°16.653 2°36.945 11.6205 3.932775 34.589588 20.523093
2006-05-10 10:56:17 51°16.679 2°37.013 11.6801 3.940046 34.59136 20.556802
2006-05-10 10:57:17 51°16.714 2°37.067 11.7035 3.944366 34.593059 20.624221
2006-05-10 10:58:17 51°16.751 2°37.1 11.723 3.946789 34.590958 20.65793
2006-05-10 10:59:17 51°16.783 2°37.11 11.6276 3.947843 34.593893 20.759059
2006-05-10 11:00:16 51°16.801 2°37.104 11.5627 3.940467 34.598446 20.860187
2006-05-10 11:01:17 51°16.794 2°37.102 11.4109 3.932565 34.622355 20.995024
2006-05-10 11:02:17 51°16.738 2°37.065 11.4522 3.923082 34.627919 20.995024
2006-05-10 11:03:16 51°16.685 2°36.953 11.489 3.926032 34.619023 20.995024
2006-05-10 11:04:17 51°16.626 2°36.844 11.4956 3.931406 34.614677 20.961315
2006-05-10 11:05:17 51°16.627 2°36.809 11.5108 3.929509 34.638363 20.995024
2006-05-10 11:06:16 51°16.649 2°36.823 11.507 3.933829 34.631067 20.995024
2006-05-10 11:07:17 51°16.672 2°36.844 11.4697 3.932565 34.638687 21.028734
2006-05-10 11:08:16 51°16.695 2°36.869 11.5182 3.930352 34.639221 21.062443
2006-05-10 11:09:16 51°16.717 2°36.895 11.5627 3.935726 34.628924 21.028734
2006-05-10 11:10:17 51°16.739 2°36.922 11.5651 3.93815 34.63344 21.062443
2006-05-10 11:11:17 51°16.76 2°36.951 11.5674 3.938571 34.634612 21.096153
2006-05-10 11:12:16 51°16.779 2°36.979 11.5781 3.939098 34.636076 21.096153
2006-05-10 11:13:17 51°16.799 2°37.007 11.5916 3.93973 34.633388 21.129862
2006-05-10 11:14:17 51°16.817 2°37.037 11.5941 3.941311 34.634079 21.197281
2006-05-10 11:15:16 51°16.834 2°37.067 11.5718 3.940573 34.635732 21.197281
2006-05-10 11:16:17 51°16.851 2°37.097 11.5685 3.938887 34.634749 21.23099
2006-05-10 11:17:17 51°16.867 2°37.127 11.5657 3.938887 34.637714 21.298409
2006-05-10 11:18:16 51°16.883 2°37.157 11.5548 3.938571 34.640542 21.2647
2006-05-10 11:19:16 51°16.897 2°37.175 11.5359 3.938361 34.641439 21.298409
2006-05-10 11:20:17 51°16.904 2°37.09 11.5728 3.93815 34.637887 21.23099
2006-05-10 11:21:17 51°17.029 2°37.04 11.6244 3.940468 34.64433 21.129862
2006-05-10 11:22:16 51°17.125 2°37.272 11.3896 3.941416 34.652893 21.096153
2006-05-10 11:23:17 51°17.128 2°37.578 11.2261 3.922978 34.708232 21.163571
2006-05-10 11:24:17 51°17.007 2°37.72 11.4332 3.915706 34.657383 21.129862
2006-05-10 11:25:17 51°16.841 2°37.692 11.3383 3.929509 34.638363 21.096153
2006-05-10 11:26:16 51°16.658 2°37.635 11.2229 3.917814 34.685678 21.23099
2006-05-10 11:27:16 51°16.468 2°37.575 11.1314 3.909596 34.689841 21.2647
2006-05-10 11:28:16 51°16.272 2°37.545 11.1055 3.901377 34.686551 21.298409
2006-05-10 11:29:16 51°16.075 2°37.515 11.0686 3.901799 34.693742 21.298409
2006-05-10 11:30:16 51°15.876 2°37.523 11.0502 3.894212 34.670394 21.298409
2006-05-10 11:31:16 51°15.675 2°37.584 11.0318 3.89769 34.717757 21.2647
2006-05-10 11:32:17 51°15.473 2°37.692 11.0719 3.898006 34.720144 21.2647
2006-05-10 11:33:16 51°15.283 2°37.83 11.0978 3.900956 34.719275 21.298409
2006-05-10 11:34:16 51°15.093 2°37.993 11.1128 3.902747 34.714446 21.2647
2006-05-10 11:35:17 51°14.902 2°38.164 11.144 3.904117 34.715233 21.2647
2006-05-10 11:36:17 51°14.715 2°38.334 11.1227 3.906435 34.719403 21.2647
2006-05-10 11:37:17 51°14.528 2°38.501 11.0858 3.904644 34.7295 21.332118
2006-05-10 11:38:17 51°14.34 2°38.656 11.136 3.903485 34.736843 21.298409
2006-05-10 11:39:17 51°14.15 2°38.804 11.2523 3.90928 34.725785 21.23099
2006-05-10 11:40:15 51°13.956 2°38.882 11.3482 3.9195 34.715068 21.23099
2006-05-10 11:41:17 51°13.75 2°38.81 11.6719 3.930668 34.636384 21.096153
2006-05-10 11:42:16 51°13.563 2°38.694 11.7462 3.943839 34.565048 21.096153
2006-05-10 11:43:17 51°13.368 2°38.583 11.7184 3.952164 34.611811 21.163571
2006-05-10 11:44:17 51°13.181 2°38.456 11.6553 3.95385 34.667411 21.23099
2006-05-10 11:45:17 51°12.997 2°38.32 11.6022 3.953429 34.709165 21.298409
2006-05-10 11:46:17 51°12.811 2°38.195 11.5444 3.951849 34.744123 21.399537
2006-05-10 11:47:17 51°12.62 2°38.085 11.5403 3.949005 34.759323 21.365828
2006-05-10 11:48:17 51°12.43 2°37.975 11.5508 3.949953 34.767151 21.298409
2006-05-10 11:49:17 51°12.239 2°37.866 11.5153 3.950691 34.776631 21.197281
2006-05-10 11:50:17 51°12.054 2°37.743 11.4512 3.947003 34.782115 21.197281
2006-05-10 11:51:17 51°11.869 2°37.614 11.4151 3.94205 34.776667 21.163571
2006-05-10 11:52:17 51°11.686 2°37.48 11.4134 3.938994 34.769729 21.129862
2006-05-10 11:53:16 51°11.506 2°37.354 11.4558 3.938468 34.769022 21.096153
2006-05-10 11:54:17 51°11.323 2°37.21 11.4881 3.941418 34.762977 21.129862
2006-05-10 11:55:17 51°11.142 2°37.079 11.5227 3.945949 34.765787 21.129862
2006-05-10 11:56:17 51°10.959 2°36.958 11.5276 3.947635 34.761499 21.096153
2006-05-10 11:57:17 51°10.768 2°36.863 11.5431 3.947319 34.750946 21.062443
2006-05-10 11:58:17 51°10.574 2°36.795 11.5666 3.949637 34.753626 21.096153
2006-05-10 11:59:17 51°10.388 2°36.899 11.631 3.948266 34.714908 21.096153
2006-05-10 12:00:17 51°10.299 2°37.218 11.6563 3.949004 34.685796 21.163571
2006-05-10 12:01:17 51°10.313 2°37.582 11.7085 3.951532 34.681695 21.129862
2006-05-10 12:02:17 51°10.351 2°37.944 11.7494 3.951215 34.615807 21.23099
2006-05-10 12:03:17 51°10.398 2°38.304 11.7958 3.951004 34.587964 21.298409
2006-05-10 12:04:17 51°10.449 2°38.665 11.8671 3.955851 34.577936 21.399537
2006-05-10 12:05:17 51°10.505 2°39.026 11.8973 3.961647 34.575733 21.534375
2006-05-10 12:06:17 51°10.564 2°39.388 11.9553 3.964702 34.573986 21.635503
2006-05-10 12:07:17 51°10.62 2°39.75 12.0165 3.971973 34.584711 21.80405
2006-05-10 12:08:17 51°10.688 2°40.105 12.0124 3.977242 34.597168 22.107435
2006-05-10 12:09:17 51°10.744 2°40.464 12.0287 3.976715 34.591322 22.275982
2006-05-10 12:10:17 51°10.79 2°40.83 12.0428 3.97798 34.588267 22.410819
2006-05-10 12:11:17 51°10.829 2°41.195 12.0515 3.978717 34.585211 22.478238
2006-05-10 12:12:17 51°10.874 2°41.55 12.0658 3.978612 34.573979 22.511947
2006-05-10 12:13:17 51°10.923 2°41.766 12.1332 3.973658 34.507753 22.478238
2006-05-10 12:14:17 51°10.963 2°41.868 12.2164 3.979137 34.483859 22.309691
2006-05-10 12:15:17 51°10.977 2°41.92 12.2273 3.983984 34.47424 22.309691
2006-05-10 12:16:17 51°10.986 2°41.971 12.2089 3.983879 34.475392 22.478238
2006-05-10 12:17:17 51°10.995 2°42.018 12.2047 3.987041 34.521867 22.714204
2006-05-10 12:18:17 51°11.003 2°42.062 12.2018 3.987146 34.522161 22.781623
2006-05-10 12:19:17 51°11.011 2°42.105 12.2057 3.98683 34.521279 22.882751
2006-05-10 12:20:17 51°11.024 2°42.149 12.2359 3.987252 34.516658 22.91646
2006-05-10 12:21:17 51°11.041 2°42.191 12.245 3.988938 34.510499 22.882751
2006-05-10 12:22:17 51°11.061 2°42.226 12.2505 3.989991 34.509821 22.95017
2006-05-10 12:23:18 51°11.057 2°42.256 12.2345 3.990097 34.509391 23.017589
2006-05-10 12:24:17 51°11.047 2°42.285 12.1996 3.989254 34.52876 23.253554
2006-05-10 12:25:17 51°11.047 2°42.313 12.2059 3.988095 34.531327 23.287264
2006-05-10 12:26:17 51°11.047 2°42.34 12.1845 3.988517 34.537577 23.354683
2006-05-10 12:27:17 51°11.047 2°42.366 12.1849 3.987357 34.539424 23.388392
2006-05-10 12:28:17 51°11.046 2°42.392 12.178 3.987463 34.541169 23.455811
2006-05-10 12:29:17 51°11.045 2°42.417 12.1786 3.987252 34.547113 23.52323
2006-05-10 12:30:17 51°11.045 2°42.442 12.1765 3.987252 34.547113 23.590648
2006-05-10 12:31:17 51°11.045 2°42.466 12.1853 3.987463 34.546248 23.624358
2006-05-10 12:32:17 51°11.046 2°42.489 12.198 3.988306 34.545693 23.624358
2006-05-10 12:33:17 51°11.049 2°42.514 12.1956 3.989149 34.545864 23.691777
2006-05-10 12:34:17 51°11.052 2°42.54 12.1944 3.98936 34.549353 23.759195
2006-05-10 12:35:17 51°11.055 2°42.566 12.1915 3.989044 34.549923 23.826614
2006-05-10 12:36:17 51°11.058 2°42.594 12.2013 3.98936 34.549353 23.860324
2006-05-10 12:37:17 51°11.06 2°42.623 12.2133 3.990097 34.54923 23.894033
2006-05-10 12:38:17 51°11.063 2°42.66 12.2314 3.991151 34.548538 23.860324
2006-05-10 12:39:16 51°11.089 2°42.759 12.2522 3.993153 34.549038 23.927742
2006-05-10 12:40:16 51°11.224 2°42.843 12.3324 3.995261 34.546214 23.927742
2006-05-10 12:41:16 51°11.424 2°42.92 12.2768 3.999686 34.535393 23.826614
2006-05-10 12:42:17 51°11.637 2°43.047 12.1751 3.993996 34.539073 23.894033
2006-05-10 12:43:17 51°11.835 2°43.218 12.0576 3.982615 34.526934 23.860324
2006-05-10 12:44:17 51°12.032 2°43.392 11.9561 3.972183 34.53348 23.894033
2006-05-10 12:45:17 51°12.221 2°43.59 11.8806 3.964807 34.545018 23.961452
2006-05-10 12:46:17 51°12.4 2°43.808 11.909 3.961541 34.557857 23.995161
2006-05-10 12:47:17 51°12.574 2°44.036 11.9451 3.961646 34.528889 23.894033
2006-05-10 12:48:17 51°12.744 2°44.272 11.9305 3.960276 34.492931 23.826614
2006-05-10 12:49:17 51°12.91 2°44.511 11.9461 3.956166 34.466109 23.860324
2006-05-10 12:50:17 51°13.078 2°44.747 12.0126 3.953109 34.420377 23.894033
2006-05-10 12:51:17 51°13.247 2°44.985 12.0488 3.953741 34.358953 23.961452
2006-05-10 12:52:17 51°13.414 2°45.225 12.1147 3.955005 34.309687 23.961452
2006-05-10 12:53:17 51°13.58 2°45.469 12.1248 3.950367 34.236694 24.163708
2006-05-10 12:54:17 51°13.747 2°45.709 12.1455 3.946995 34.203368 24.264836
2006-05-10 12:55:17 51°13.915 2°45.952 12.1438 3.949418 34.21097 24.332255
2006-05-10 12:56:17 51°14.081 2°46.19 12.4012 3.947204 34.119292 24.365965
2006-05-10 12:57:17 51°14.248 2°46.422 12.2513 3.934135 33.842882 24.399674
2006-05-10 12:58:17 51°14.417 2°46.646 12.1535 3.905368 33.734604 24.939024
2006-05-10 12:59:17 51°14.594 2°46.858 12.0782 3.891458 33.652928 25.309828
2006-05-10 13:00:16 51°14.767 2°47.071 12.1347 3.880289 33.592575 25.242409
2006-05-10 13:01:16 51°14.942 2°47.294 12.1721 3.885663 33.594233 25.006443
2006-05-10 13:02:16 51°15.117 2°47.516 12.073 3.886716 33.606508 24.972734
2006-05-10 13:03:17 51°15.295 2°47.739 12.0455 3.880184 33.604292 25.141281
2006-05-10 13:04:17 51°15.471 2°47.959 12.0342 3.878498 33.614213 25.107571
2006-05-10 13:05:17 51°15.649 2°48.174 12.0794 3.881343 33.638156 25.073862
2006-05-10 13:06:17 51°15.822 2°48.399 12.215 3.891143 33.696634 25.107571
2006-05-10 13:07:15 51°15.992 2°48.618 12.1851 3.907159 33.750443 25.107571
2006-05-10 13:08:17 51°16.154 2°48.889 12.109 3.904736 33.775296 25.309828
2006-05-10 13:09:17 51°16.318 2°49.145 12.0788 3.897782 33.753632 25.343537
2006-05-10 13:10:17 51°16.478 2°49.402 12.0062 3.901892 33.815383 25.512084
2006-05-10 13:11:16 51°16.609 2°49.684 11.9725 3.893884 33.811376 25.714341
2006-05-10 13:12:17 51°16.729 2°49.997 11.9827 3.888721 33.762104 25.714341
2006-05-10 13:13:17 51°16.893 2°50.22 11.911 3.877762 33.705161 25.916597
2006-05-10 13:14:16 51°17.104 2°50.312 11.903 3.875127 33.674651 25.849178
2006-05-10 13:15:16 51°17.319 2°50.41 11.8043 3.8628 33.638494 26.2874
2006-05-10 13:16:17 51°17.538 2°50.51 11.7386 3.859007 33.639487 26.32111
2006-05-10 13:17:17 51°17.75 2°50.625 11.7527 3.846784 33.566374 26.658204
2006-05-10 13:18:17 51°17.956 2°50.738 11.7072 3.844571 33.549137 26.455947
2006-05-10 13:19:17 51°18.105 2°50.832 11.6785 3.83846 33.532505 26.658204
2006-05-10 13:20:17 51°18.22 2°50.914 11.6834 3.833297 33.496517 26.759332
2006-05-10 13:21:17 51°18.26 2°50.955 11.6788 3.831717 33.483268 26.86046
2006-05-10 13:22:17 51°18.27 2°50.97 11.6786 3.831084 33.477112 26.961589
2006-05-10 13:23:17 51°18.282 2°51.008 11.6677 3.830452 33.478091 27.163845
2006-05-10 13:24:17 51°18.298 2°51.052 11.6942 3.830347 33.472784 27.163845
2006-05-10 13:25:17 51°18.319 2°51.092 11.6956 3.832032 33.472081 27.197554
2006-05-10 13:26:17 51°18.345 2°51.129 11.7127 3.832349 33.473019 27.231264
2006-05-10 13:27:17 51°18.372 2°51.164 11.7754 3.835299 33.471083 27.197554
2006-05-10 13:28:16 51°18.401 2°51.197 11.7926 3.84025 33.470827 27.130136
2006-05-10 13:29:17 51°18.43 2°51.231 11.8239 3.841409 33.472842 27.197554
2006-05-10 13:30:18 51°18.438 2°51.24 11.8387 3.844886 33.466814 27.231264
2006-05-10 13:31:17 51°18.438 2°51.238 11.776 3.843938 33.474653 27.602067
2006-05-10 13:32:17 51°18.439 2°51.238 11.7563 3.839092 33.475925 27.804324
2006-05-10 13:33:17 51°18.44 2°51.239 11.803 3.838249 33.467023 27.838033
2006-05-10 13:34:17 51°18.442 2°51.239 11.8122 3.842041 33.458378 27.770614
2006-05-10 13:35:17 51°18.446 2°51.241 11.8264 3.841409 33.463604 27.871742
2006-05-10 13:36:17 51°18.449 2°51.245 11.8175 3.843306 33.459289 27.871742
2006-05-10 13:37:17 51°18.453 2°51.25 11.8362 3.842147 33.465081 27.972871
2006-05-10 13:38:17 51°18.458 2°51.258 11.8542 3.844043 33.4558 27.905452
2006-05-10 13:39:17 51°18.461 2°51.269 11.8681 3.845623 33.456232 27.871742
2006-05-10 13:40:17 51°18.444 2°51.312 11.8999 3.846361 33.45842 27.905452
2006-05-10 13:41:17 51°18.314 2°51.451 11.8022 3.847625 33.465004 27.972871
2006-05-10 13:42:17 51°18.132 2°51.618 11.7421 3.84004 33.472335 28.073999
2006-05-10 13:43:17 51°17.948 2°51.785 11.7286 3.837827 33.479294 28.073999
2006-05-10 13:44:17 51°17.758 2°51.938 11.7893 3.833086 33.451701 28.040289
2006-05-10 13:45:16 51°17.573 2°52.084 11.8452 3.842674 33.490098 27.770614
2006-05-10 13:46:16 51°17.378 2°52.208 11.9219 3.856582 33.550411 27.635777
2006-05-10 13:47:17 51°17.179 2°52.331 12.0443 3.865011 33.536967 27.534648
2006-05-10 13:48:17 51°16.986 2°52.47 12.0424 3.852154 33.359845 27.669486
2006-05-10 13:49:18 51°16.788 2°52.606 11.9805 3.842355 33.280026 27.838033
2006-05-10 13:50:17 51°16.603 2°52.756 12.0941 3.825811 33.086942 27.770614
2006-05-10 13:51:17 51°16.411 2°52.893 12.1623 3.810532 32.924542 27.939161
2006-05-10 13:52:17 51°16.215 2°53.029 12.1256 3.804841 32.787684 28.107708
2006-05-10 13:53:17 51°16.017 2°53.153 12.0099 3.780924 32.635675 28.377383
2006-05-10 13:54:17 51°15.818 2°53.282 12.1054 3.764383 32.540448 28.680768
2006-05-10 13:55:17 51°15.619 2°53.399 12.4595 3.772913 32.331627 28.377383
2006-05-10 13:56:17 51°15.423 2°53.518 12.6935 3.76522 32.167651 44.052255
2006-05-10 13:57:17 51°15.238 2°53.634 12.8125 3.765642 32.172328 42.703879
2006-05-10 13:58:17 51°15.068 2°53.732 12.9285 3.766063 32.176335 41.793725
2006-05-10 13:59:16 51°14.904 2°53.827 13.0493 3.766485 32.177665 41.220665
2006-05-10 14:00:17 51°14.756 2°53.984 13.1639 3.766801 32.175985 40.816153
2006-05-10 14:01:16 51°14.645 2°54.232 13.2827 3.767222 32.166611 40.715024
2006-05-10 14:02:17 51°14.54 2°54.516 13.3778 3.768065 32.162585 40.479059
2006-05-10 14:03:17 51°14.437 2°54.798 13.5434 3.769434 32.162899 40.310512
2006-05-10 14:04:17 51°14.342 2°55.076 13.6442 3.77112 32.164211 40.175674
2006-05-10 14:05:18 51°14.231 2°55.301 13.7268 3.773227 32.168187 40.074546
2006-05-10 14:06:17 51°14.14 2°55.399 13.7945 3.775545 32.174829 39.905999
2006-05-10 14:07:16 51°14.071 2°55.492 13.8599 3.777863 32.179466 39.771161
2006-05-10 14:08:18 51°13.97 2°55.584 14.043 3.780286 32.1851 39.602614
2006-05-10 14:09:17 51°13.84 2°55.638 14.1507 3.782603 32.1904 39.366648
2006-05-10 14:10:17 51°13.752 2°55.694 14.2077 3.785027 32.197361 39.198101
2006-05-10 14:11:18 51°13.699 2°55.793 14.2624 3.78745 32.202321 39.096973
2006-05-10 14:12:16 51°13.662 2°55.882 14.2914 3.789768 32.208279 38.928426
2006-05-10 14:13:16 51°13.635 2°55.956 14.3718 3.792191 32.213899 38.72617
2006-05-10 14:14:17 51°13.614 2°56.023 14.4682 3.794509 32.218521 38.625042
2006-05-10 14:15:17 51°13.605 2°56.077 14.6195 3.796826 32.223807 38.456494
2006-05-10 14:16:19 51°13.601 2°56.096 14.8015 3.799144 32.228425 38.287947
2006-05-10 14:17:21 51°13.601 2°56.099 14.8867 3.801357 32.233375 38.15311
2006-05-10 14:18:21 51°13.602 2°56.1 14.9355 3.80378 32.238321 37.984563
2006-05-10 14:19:21 51°13.602 2°56.1 14.9604 3.805992 32.24194 37.883435
2006-05-10 14:20:21 51°13.602 2°56.098 15.126 3.808205 32.246222 37.748597
2006-05-10 14:21:21 51°13.602 2°56.099 15.1797 3.810523 32.250832 37.58005